createdAt,value
2022-09-25T00:01:10.343Z,12.10
2022-09-25T00:03:37.195Z,12.08
2022-09-25T00:06:07.365Z,12.13
2022-09-25T00:08:35.094Z,11.99
2022-09-25T00:11:07.683Z,11.98
2022-09-25T00:13:35.187Z,11.98
2022-09-25T00:16:03.301Z,12.01
2022-09-25T00:18:48.727Z,11.97
2022-09-25T00:21:16.029Z,11.96
2022-09-25T00:23:47.120Z,11.99
2022-09-25T00:26:15.693Z,12.01
2022-09-25T00:28:43.455Z,11.99
2022-09-25T00:31:11.546Z,12.00
2022-09-25T00:33:38.687Z,12.06
2022-09-25T00:36:08.025Z,12.10
2022-09-25T00:38:36.830Z,12.12
2022-09-25T00:41:05.318Z,12.16
2022-09-25T00:43:37.844Z,12.22
2022-09-25T00:46:09.124Z,12.25
2022-09-25T00:48:36.850Z,12.18
2022-09-25T00:51:05.072Z,12.16
2022-09-25T00:53:35.864Z,12.15
2022-09-25T00:56:02.653Z,12.10
2022-09-25T00:58:31.473Z,12.15
2022-09-25T01:00:58.282Z,12.20
2022-09-25T01:03:26.336Z,12.12
2022-09-25T01:05:54.678Z,12.14
2022-09-25T01:08:23.916Z,12.16
2022-09-25T01:10:51.583Z,12.10
2022-09-25T01:13:20.425Z,12.11
2022-09-25T01:16:07.319Z,12.22
2022-09-25T01:18:45.928Z,12.17
2022-09-25T01:21:24.433Z,12.21
2022-09-25T01:24:19.237Z,12.13
2022-09-25T01:27:17.228Z,12.13
2022-09-25T01:30:05.994Z,12.02
2022-09-25T01:32:52.921Z,12.02
2022-09-25T01:35:29.034Z,12.11
2022-09-25T01:38:15.356Z,12.15
2022-09-25T01:41:09.599Z,12.20
2022-09-25T01:43:47.470Z,12.11
2022-09-25T01:46:35.182Z,12.13
2022-09-25T01:49:09.605Z,12.13
2022-09-25T01:51:39.562Z,12.09
2022-09-25T01:54:12.730Z,12.09
2022-09-25T01:56:48.342Z,12.06
2022-09-25T01:59:24.734Z,12.04
2022-09-25T02:01:51.920Z,12.12
2022-09-25T02:04:32.992Z,12.05
2022-09-25T02:07:03.762Z,12.02
2022-09-25T02:09:33.397Z,11.89
2022-09-25T02:12:05.581Z,11.87
2022-09-25T02:14:35.740Z,11.99
2022-09-25T02:17:05.727Z,11.92
2022-09-25T02:19:51.135Z,11.95
2022-09-25T02:22:22.527Z,11.94
2022-09-25T02:25:00.935Z,11.95
2022-09-25T02:27:28.792Z,11.98
2022-09-25T02:29:56.576Z,11.95
2022-09-25T02:32:26.825Z,11.94
2022-09-25T02:34:53.680Z,11.92
2022-09-25T02:37:20.444Z,11.93
2022-09-25T02:39:50.226Z,11.95
2022-09-25T02:42:26.629Z,11.88
2022-09-25T02:45:16.668Z,11.83
2022-09-25T02:48:03.563Z,11.76
2022-09-25T02:50:50.571Z,11.69
2022-09-25T02:53:35.997Z,11.84
2022-09-25T02:56:03.920Z,11.81
2022-09-25T02:58:37.293Z,11.74
2022-09-25T03:01:06.134Z,11.80
2022-09-25T03:03:34.234Z,11.71
2022-09-25T03:06:01.562Z,11.82
2022-09-25T03:08:41.785Z,11.78
2022-09-25T03:11:13.773Z,11.74
2022-09-25T03:13:41.194Z,11.72
2022-09-25T03:16:20.439Z,11.81
2022-09-25T03:18:48.065Z,11.82
2022-09-25T03:21:14.860Z,11.88
2022-09-25T03:23:41.598Z,11.87
2022-09-25T03:26:08.339Z,11.88
2022-09-25T03:28:35.384Z,11.88
2022-09-25T03:31:05.413Z,11.81
2022-09-25T03:33:39.001Z,11.80
2022-09-25T03:36:06.107Z,11.76
2022-09-25T03:38:33.413Z,11.77
2022-09-25T03:41:00.314Z,11.75
2022-09-25T03:43:27.113Z,11.74
2022-09-25T03:45:54.011Z,11.81
2022-09-25T03:48:21.868Z,11.87
2022-09-25T03:50:49.968Z,11.91
2022-09-25T03:53:18.356Z,11.93
2022-09-25T03:55:48.661Z,11.83
2022-09-25T03:58:16.780Z,11.78
2022-09-25T04:00:44.731Z,11.78
2022-09-25T04:03:12.289Z,11.72
2022-09-25T04:05:39.660Z,11.72
2022-09-25T04:08:06.525Z,11.74
2022-09-25T04:10:38.874Z,11.73
2022-09-25T04:13:06.769Z,11.73
2022-09-25T04:15:33.929Z,11.77
2022-09-25T04:18:05.187Z,11.77
2022-09-25T04:20:33.276Z,11.80
2022-09-25T04:23:00.062Z,11.83
2022-09-25T04:25:26.776Z,11.88
2022-09-25T04:27:55.490Z,11.92
2022-09-25T04:30:23.303Z,11.83
2022-09-25T04:33:09.249Z,11.76
2022-09-25T04:35:35.986Z,11.78
2022-09-25T04:38:03.069Z,11.66
2022-09-25T04:40:30.681Z,11.59
2022-09-25T04:43:02.484Z,11.58
2022-09-25T04:45:29.944Z,11.56
2022-09-25T04:47:59.330Z,11.53
2022-09-25T04:50:29.586Z,11.48
2022-09-25T04:53:02.265Z,11.56
2022-09-25T04:55:28.934Z,11.59
2022-09-25T04:58:00.619Z,11.53
2022-09-25T05:00:29.929Z,11.55
2022-09-25T05:02:56.805Z,11.52
2022-09-25T05:05:30.642Z,11.57
2022-09-25T05:07:59.266Z,11.58
2022-09-25T05:10:34.508Z,11.64
2022-09-25T05:17:18.570Z,11.73
2022-09-25T05:29:34.274Z,11.56
2022-09-25T05:35:43.330Z,11.60
2022-09-25T05:38:10.009Z,11.64
2022-09-25T05:40:39.807Z,11.64
2022-09-25T05:43:07.077Z,11.54
2022-09-25T05:45:39.393Z,11.54
2022-09-25T05:48:08.910Z,11.61
2022-09-25T05:50:35.966Z,11.57
2022-09-25T05:53:05.074Z,11.56
2022-09-25T05:55:32.005Z,11.55
2022-09-25T05:58:03.385Z,11.58
2022-09-25T06:00:33.266Z,11.59
2022-09-25T06:03:01.626Z,11.64
2022-09-25T06:05:28.994Z,11.67
2022-09-25T06:07:55.781Z,11.69
2022-09-25T06:10:23.001Z,11.76
2022-09-25T06:12:49.749Z,11.84
2022-09-25T06:15:16.444Z,11.90
2022-09-25T06:17:43.305Z,11.92
2022-09-25T06:20:15.911Z,12.07
2022-09-25T06:22:44.589Z,12.04
2022-09-25T06:25:11.377Z,12.06
2022-09-25T06:27:38.103Z,12.09
2022-09-25T06:30:05.967Z,12.10
2022-09-25T06:32:32.914Z,12.12
2022-09-25T06:34:59.571Z,12.16
2022-09-25T06:37:26.238Z,12.22
2022-09-25T06:39:52.953Z,12.28
2022-09-25T06:42:22.169Z,12.33
2022-09-25T06:44:48.942Z,12.33
2022-09-25T06:47:18.829Z,12.42
2022-09-25T06:49:47.124Z,12.37
2022-09-25T06:52:13.840Z,12.40
2022-09-25T06:54:44.360Z,12.47
2022-09-25T06:57:12.694Z,12.42
2022-09-25T06:59:40.058Z,12.45
2022-09-25T07:02:26.348Z,12.44
2022-09-25T07:05:03.946Z,12.48
2022-09-25T07:35:46.832Z,12.73
2022-09-25T07:39:18.340Z,12.75
2022-09-25T07:42:08.928Z,12.96
2022-09-25T07:48:32.869Z,13.10
2022-09-25T07:52:04.338Z,13.32
2022-09-25T07:54:46.871Z,13.44
2022-09-25T07:57:45.712Z,13.40
2022-09-25T08:00:40.816Z,13.55
2022-09-25T08:03:19.791Z,13.70
2022-09-25T08:05:58.174Z,13.85
2022-09-25T08:11:28.365Z,13.90
2022-09-25T08:14:10.329Z,14.02
2022-09-25T08:16:44.910Z,14.14
2022-09-25T08:29:31.589Z,14.58
2022-09-25T08:31:58.458Z,14.60
2022-09-25T08:34:40.513Z,14.48
2022-09-25T08:37:09.810Z,14.48
2022-09-25T08:39:36.591Z,14.40
2022-09-25T08:42:03.876Z,14.52
2022-09-25T08:44:33.144Z,14.56
2022-09-25T08:47:30.127Z,14.41
2022-09-25T08:50:46.792Z,14.56
2022-09-25T08:54:30.367Z,14.52
2022-09-25T09:08:29.554Z,14.51
2022-09-25T09:11:13.736Z,14.45
2022-09-25T09:17:20.175Z,14.52
2022-09-25T09:20:08.069Z,14.53
2022-09-25T09:26:43.774Z,14.37
2022-09-25T09:30:01.454Z,14.48
2022-09-25T09:53:09.344Z,14.59
2022-09-25T09:56:35.067Z,14.70
2022-09-25T10:06:59.341Z,14.70
2022-09-25T10:09:27.928Z,14.73
2022-09-25T10:12:08.373Z,14.89
2022-09-25T10:14:40.033Z,15.00
2022-09-25T10:17:12.272Z,15.14
2022-09-25T10:21:46.288Z,15.21
2022-09-25T10:29:26.053Z,15.40
2022-09-25T10:32:13.334Z,15.70
2022-09-25T10:34:41.588Z,15.85
2022-09-25T10:37:19.148Z,15.90
2022-09-25T10:40:30.352Z,15.86
2022-09-25T10:43:20.199Z,16.03
2022-09-25T10:49:53.043Z,16.38
2022-09-25T10:52:27.597Z,16.51
2022-09-25T10:55:25.635Z,16.57
2022-09-25T10:58:10.514Z,16.79
2022-09-25T11:00:51.906Z,17.00
2022-09-25T11:03:34.524Z,17.04
2022-09-25T11:06:05.491Z,17.04
2022-09-25T11:09:11.910Z,16.96
2022-09-25T11:11:57.141Z,16.90
2022-09-25T11:18:50.946Z,16.86
2022-09-25T11:21:37.624Z,17.04
2022-09-25T11:24:08.224Z,17.14
2022-09-25T11:26:38.937Z,17.26
2022-09-25T11:29:43.214Z,17.29
2022-09-25T11:32:24.752Z,17.37
2022-09-25T11:35:01.519Z,17.25
2022-09-25T11:37:43.813Z,17.38
2022-09-25T11:40:29.537Z,17.21
2022-09-25T11:43:06.686Z,17.47
2022-09-25T11:45:48.761Z,17.53
2022-09-25T11:48:27.526Z,17.37
2022-09-25T11:51:22.719Z,17.37
2022-09-25T11:54:33.132Z,17.65
2022-09-25T11:57:11.701Z,17.98
2022-09-25T11:59:58.054Z,18.24
2022-09-25T12:03:09.141Z,18.48
2022-09-25T12:05:54.246Z,18.70
2022-09-25T12:08:47.757Z,19.16
2022-09-25T12:11:45.820Z,19.34
2022-09-25T12:14:22.059Z,19.37
2022-09-25T12:17:14.717Z,19.30
2022-09-25T12:20:05.582Z,19.37
2022-09-25T12:22:51.853Z,19.25
2022-09-25T12:25:24.782Z,19.13
2022-09-25T12:27:58.454Z,19.04
2022-09-25T12:30:30.219Z,19.18
2022-09-25T12:33:12.889Z,19.11
2022-09-25T12:36:00.609Z,19.09
2022-09-25T12:38:38.883Z,19.72
2022-09-25T12:41:13.258Z,20.23
2022-09-25T12:43:52.578Z,20.21
2022-09-25T12:46:25.220Z,20.50
2022-09-25T12:48:58.671Z,20.48
2022-09-25T12:51:35.203Z,20.47
2022-09-25T12:54:07.165Z,19.99
2022-09-25T12:56:58.139Z,20.11
2022-09-25T12:59:39.443Z,20.13
2022-09-25T13:02:19.796Z,19.89
2022-09-25T13:05:01.736Z,19.23
2022-09-25T13:07:50.102Z,18.92
2022-09-25T13:10:22.098Z,19.37
2022-09-25T13:12:49.681Z,19.90
2022-09-25T13:15:33.330Z,20.18
2022-09-25T13:18:00.157Z,20.40
2022-09-25T13:20:26.860Z,20.59
2022-09-25T13:22:58.175Z,20.64
2022-09-25T13:25:25.549Z,20.63
2022-09-25T13:28:08.213Z,20.32
2022-09-25T13:30:35.080Z,19.34
2022-09-25T13:33:09.297Z,19.51
2022-09-25T13:35:36.117Z,19.27
2022-09-25T13:38:35.772Z,18.80
2022-09-25T13:41:12.913Z,18.76
2022-09-25T13:43:39.870Z,18.53
2022-09-25T13:46:23.575Z,18.41
2022-09-25T13:48:55.603Z,18.36
2022-09-25T13:51:22.417Z,18.56
2022-09-25T13:54:01.858Z,18.61
2022-09-25T13:56:40.868Z,18.56
2022-09-25T13:59:12.416Z,18.04
2022-09-25T14:01:43.450Z,18.37
2022-09-25T14:04:17.296Z,18.50
2022-09-25T14:06:46.424Z,18.46
2022-09-25T14:09:18.951Z,18.47
2022-09-25T14:11:52.211Z,18.44
2022-09-25T14:14:55.633Z,18.61
2022-09-25T14:17:24.547Z,18.84
2022-09-25T14:19:54.243Z,19.07
2022-09-25T14:22:44.677Z,18.87
2022-09-25T14:25:38.461Z,18.79
2022-09-25T14:28:18.941Z,18.43
2022-09-25T14:30:59.537Z,18.38
2022-09-25T14:33:46.412Z,17.99
2022-09-25T14:36:44.179Z,17.60
2022-09-25T14:39:28.985Z,17.37
2022-09-25T14:42:37.301Z,17.15
2022-09-25T14:45:25.887Z,16.96
2022-09-25T14:47:56.337Z,17.14
2022-09-25T14:50:26.616Z,17.19
2022-09-25T14:53:03.867Z,17.00
2022-09-25T14:55:36.006Z,16.94
2022-09-25T14:58:07.432Z,16.99
2022-09-25T15:00:35.794Z,16.99
2022-09-25T15:03:02.926Z,17.04
2022-09-25T15:05:33.270Z,17.04
2022-09-25T15:08:02.392Z,17.13
2022-09-25T15:10:38.008Z,16.98
2022-09-25T15:13:17.260Z,17.07
2022-09-25T15:16:15.031Z,16.88
2022-09-25T15:18:43.920Z,16.97
2022-09-25T15:21:22.148Z,16.99
2022-09-25T15:23:49.002Z,17.13
2022-09-25T15:26:18.565Z,17.20
2022-09-25T15:28:45.897Z,17.26
2022-09-25T15:31:13.145Z,17.39
2022-09-25T15:33:40.965Z,17.48
2022-09-25T15:36:16.011Z,17.73
2022-09-25T15:38:45.688Z,17.72
2022-09-25T15:41:17.557Z,18.11
2022-09-25T15:43:44.396Z,18.03
2022-09-25T15:46:11.368Z,18.03
2022-09-25T15:48:57.864Z,17.65
2022-09-25T15:51:29.511Z,17.39
2022-09-25T15:54:26.077Z,17.40
2022-09-25T15:56:55.561Z,17.08
2022-09-25T15:59:33.770Z,16.81
2022-09-25T16:02:29.243Z,16.60
2022-09-25T16:04:56.877Z,16.39
2022-09-25T16:07:36.512Z,16.27
2022-09-25T16:10:09.452Z,16.49
2022-09-25T16:12:50.154Z,16.64
2022-09-25T16:15:46.049Z,16.53
2022-09-25T16:18:42.996Z,16.59
2022-09-25T16:24:58.529Z,16.27
2022-09-25T16:27:34.189Z,16.26
2022-09-25T16:30:04.329Z,16.30
2022-09-25T16:32:32.160Z,15.94
2022-09-25T16:35:01.304Z,16.00
2022-09-25T16:37:33.811Z,15.86
2022-09-25T16:40:08.619Z,15.72
2022-09-25T16:42:42.460Z,15.58
2022-09-25T16:45:30.013Z,15.50
2022-09-25T16:51:58.249Z,15.35
2022-09-25T16:54:31.936Z,15.45
2022-09-25T16:56:59.591Z,15.29
2022-09-25T16:59:28.533Z,15.33
2022-09-25T17:01:57.906Z,15.33
2022-09-25T17:04:54.197Z,15.26
2022-09-25T17:07:21.254Z,15.22
2022-09-25T17:09:48.285Z,15.24
2022-09-25T17:12:20.566Z,15.26
2022-09-25T17:14:50.729Z,15.25
2022-09-25T17:17:20.095Z,15.12
2022-09-25T17:19:52.958Z,15.08
2022-09-25T17:22:20.015Z,15.01
2022-09-25T17:24:46.829Z,14.91
2022-09-25T17:27:16.826Z,14.78
2022-09-25T17:29:48.362Z,14.63
2022-09-25T17:32:19.333Z,14.49
2022-09-25T17:34:46.684Z,14.44
2022-09-25T17:37:14.035Z,14.45
2022-09-25T17:39:40.784Z,14.38
2022-09-25T17:42:15.156Z,14.30
2022-09-25T17:44:49.254Z,14.34
2022-09-25T17:47:21.755Z,14.38
2022-09-25T17:49:49.874Z,14.39
2022-09-25T17:52:18.374Z,14.26
2022-09-25T17:54:50.681Z,14.31
2022-09-25T17:57:17.491Z,14.17
2022-09-25T17:59:44.477Z,14.09
2022-09-25T18:02:15.455Z,14.12
2022-09-25T18:04:44.849Z,14.01
2022-09-25T18:07:11.603Z,13.98
2022-09-25T18:09:40.608Z,13.95
2022-09-25T18:12:08.724Z,13.89
2022-09-25T18:14:49.877Z,14.18
2022-09-25T18:17:19.485Z,14.20
2022-09-25T18:20:07.380Z,14.17
2022-09-25T18:22:40.049Z,14.07
2022-09-25T18:25:34.867Z,13.91
2022-09-25T18:28:37.387Z,13.88
2022-09-25T18:31:14.462Z,13.79
2022-09-25T18:33:47.166Z,13.94
2022-09-25T18:36:14.822Z,14.04
2022-09-25T18:38:42.433Z,13.85
2022-09-25T18:41:15.130Z,13.81
2022-09-25T18:43:45.011Z,13.66
2022-09-25T18:46:12.025Z,13.89
2022-09-25T18:48:50.324Z,13.91
2022-09-25T18:55:43.776Z,13.95
2022-09-25T18:59:27.536Z,13.72
2022-09-25T19:07:59.060Z,13.48
2022-09-25T19:10:39.065Z,13.43
2022-09-25T19:14:12.495Z,13.41
2022-09-25T19:17:55.263Z,13.34
2022-09-25T20:25:39.921Z,12.72
2022-09-25T20:28:54.754Z,12.58
2022-09-25T20:32:01.168Z,12.40
2022-09-25T21:00:01.563Z,12.28
2022-09-25T21:03:06.278Z,12.17
2022-09-25T21:05:58.229Z,12.21
2022-09-25T21:08:37.302Z,12.13
2022-09-25T21:11:35.237Z,12.23
2022-09-25T21:14:55.117Z,12.04
2022-09-25T21:18:12.699Z,12.01
2022-09-25T21:21:57.764Z,12.00
2022-09-25T21:25:10.037Z,11.98
2022-09-25T21:28:27.584Z,12.09
2022-09-25T21:36:00.553Z,11.98
2022-09-25T21:39:22.121Z,11.87
2022-09-25T21:46:06.083Z,11.90
2022-09-25T21:49:25.620Z,11.83
2022-09-25T21:52:54.185Z,11.79
2022-09-25T21:55:51.764Z,11.89
2022-09-25T22:01:46.638Z,11.74
2022-09-25T22:04:54.056Z,11.75
2022-09-25T22:07:28.046Z,11.84
2022-09-25T22:10:17.719Z,11.84
2022-09-25T22:13:34.353Z,11.83
2022-09-25T22:20:48.533Z,11.85
2022-09-25T22:23:33.414Z,11.79
2022-09-25T22:26:48.842Z,11.60
2022-09-25T22:30:08.984Z,11.91
2022-09-25T22:33:53.418Z,11.93
2022-09-25T22:51:05.418Z,12.00
2022-09-25T23:01:44.694Z,11.63
2022-09-25T23:16:09.338Z,11.49
2022-09-25T23:19:58.855Z,11.52
2022-09-25T23:23:34.503Z,11.37
2022-09-25T23:30:07.754Z,11.19
2022-09-25T23:33:03.803Z,11.24
2022-09-25T23:36:37.638Z,11.06
2022-09-25T23:39:45.512Z,11.10
2022-09-25T23:42:31.974Z,11.15
2022-09-25T23:56:04.256Z,11.06
2022-09-25T23:59:14.075Z,10.95
